Time;durP1;ratioP1;P1;durP2;ratioP2;P2;SDS_P1;SDS_P2;PMS_P1;PMS_P2;Temp;Humidity;BMP_temperature;BMP_pressure;BME280_temperature;BME280_humidity;BME280_pressure;Samples;Min_cycle;Max_cycle;Signal;HPM_P1;HPM_P2
2023/05/21 00:00:27;;;;;;;;;;;;;;;16.84;57.73;100540.34;5077392;28;1978;-62
2023/05/21 00:02:53;;;;;;;;;;;;;;;16.50;57.48;100540.19;5077698;28;1134;-57
2023/05/21 00:05:20;;;;;;;;;;;;;;;16.36;57.20;100531.72;5082207;28;1189;-57
2023/05/21 00:07:45;;;;;;;;;;;;;;;16.19;57.06;100537.53;5077489;28;1063;-62
2023/05/21 00:10:11;;;;;;;;;;;;;;;16.08;56.92;100521.06;5076757;28;1061;-61
2023/05/21 00:12:37;;;;;;;;;;;;;;;16.04;56.48;100527.38;5077074;28;1174;-61
2023/05/21 00:15:02;;;;;;;;;;;;;;;15.91;56.50;100520.53;5077132;28;1134;-58
2023/05/21 00:17:28;;;;;;;;;;;;;;;16.23;57.80;100524.91;5085799;28;1082;-58
2023/05/21 00:19:55;;;;;;;;;;;;;;;17.49;56.89;100517.50;5080844;28;1917;-62
2023/05/21 00:22:21;;;;;;;;;;;;;;;16.85;57.74;100524.69;5077152;28;1126;-59
2023/05/21 00:24:46;;;;;;;;;;;;;;;16.53;57.63;100518.50;5076960;28;1070;-60
2023/05/21 00:27:12;;;;;;;;;;;;;;;16.31;57.47;100524.31;5076597;28;1099;-62
2023/05/21 00:29:37;;;;;;;;;;;;;;;16.20;57.12;100517.19;5080681;28;1162;-63
2023/05/21 00:32:03;;;;;;;;;;;;;;;16.09;56.62;100510.94;5048394;28;1226;-63
2023/05/21 00:34:29;;;;;;;;;;;;;;;15.98;56.73;100510.09;5076859;28;1050;-63
2023/05/21 00:36:54;;;;;;;;;;;;;;;17.18;57.38;100508.59;5076505;28;1099;-63
2023/05/21 00:39:20;;;;;;;;;;;;;;;16.71;57.79;100514.31;5076683;28;1038;-65
2023/05/21 00:41:47;;;;;;;;;;;;;;;16.42;57.57;100512.22;5085432;28;1905;-62
2023/05/21 00:44:13;;;;;;;;;;;;;;;16.24;57.15;100521.03;5080276;28;1128;-62
2023/05/21 00:46:39;;;;;;;;;;;;;;;16.13;57.04;100519.41;5076188;28;1052;-61
2023/05/21 00:49:05;;;;;;;;;;;;;;;15.97;56.92;100513.13;5058548;28;1062;-63
2023/05/21 00:51:31;;;;;;;;;;;;;;;16.84;57.56;100482.66;5057851;28;1423;-62
2023/05/21 00:53:57;;;;;;;;;;;;;;;16.88;57.79;100518.63;5065901;28;1533;-61
2023/05/21 00:56:23;;;;;;;;;;;;;;;16.46;57.78;100517.16;5076440;28;1050;-62
2023/05/21 00:58:51;;;;;;;;;;;;;;;16.30;57.41;100519.94;5076518;28;1186;-62
2023/05/21 01:01:17;;;;;;;;;;;;;;;16.16;57.10;100516.09;5058541;28;1913;-63
2023/05/21 01:03:43;;;;;;;;;;;;;;;16.09;56.72;100516.41;5076320;28;1117;-63
2023/05/21 01:06:09;;;;;;;;;;;;;;;15.94;56.73;100511.75;5060062;28;864;-62
2023/05/21 01:08:36;;;;;;;;;;;;;;;15.86;56.84;100509.56;5076139;28;1045;-62
2023/05/21 01:11:05;;;;;;;;;;;;;;;16.40;57.83;100513.59;5058780;28;1170;-65
2023/05/21 01:13:31;;;;;;;;;;;;;;;17.48;56.81;100504.84;5076206;28;1221;-63
2023/05/21 01:15:58;;;;;;;;;;;;;;;16.72;57.88;100504.97;5058405;28;1352;-62
2023/05/21 01:18:23;;;;;;;;;;;;;;;16.42;57.70;100494.91;5082053;28;1094;-60
2023/05/21 01:20:49;;;;;;;;;;;;;;;16.22;57.59;100495.81;5065817;28;1976;-60
2023/05/21 01:23:18;;;;;;;;;;;;;;;16.09;57.13;100491.72;5057877;28;1328;-61
2023/05/21 01:25:44;;;;;;;;;;;;;;;16.01;56.93;100495.03;5076256;28;1220;-61
2023/05/21 01:28:09;;;;;;;;;;;;;;;16.03;57.24;100493.66;5076073;28;1133;-61
2023/05/21 01:30:35;;;;;;;;;;;;;;;17.31;57.31;100487.94;5060516;28;1227;-62
2023/05/21 01:33:02;;;;;;;;;;;;;;;16.93;57.72;100489.25;5058186;28;1372;-63
2023/05/21 01:35:31;;;;;;;;;;;;;;;16.53;57.88;100479.25;5075998;28;1075;-65
2023/05/21 01:38:02;;;;;;;;;;;;;;;16.33;57.45;100480.16;5076142;28;1154;-66
2023/05/21 01:40:38;;;;;;;;;;;;;;;16.18;57.08;100476.31;5076053;28;2118;-66
2023/05/21 01:43:04;;;;;;;;;;;;;;;16.07;56.78;100477.44;5067161;28;896;-67
2023/05/21 01:45:30;;;;;;;;;;;;;;;15.99;56.68;100476.13;5075679;28;1011;-66
2023/05/21 01:47:55;;;;;;;;;;;;;;;16.46;57.82;100478.72;5075892;28;1197;-66
2023/05/21 01:50:22;;;;;;;;;;;;;;;17.23;57.09;100476.41;5079030;28;1083;-66
2023/05/21 01:52:48;;;;;;;;;;;;;;;16.55;58.18;100468.78;5061451;28;1170;-65
2023/05/21 01:55:14;;;;;;;;;;;;;;;16.36;57.57;100461.19;5052219;28;924;-66
2023/05/21 01:57:39;;;;;;;;;;;;;;;16.18;57.23;100456.31;5047757;28;1888;-62
2023/05/21 02:00:06;;;;;;;;;;;;;;;16.08;57.04;100457.97;5061948;28;1922;-62
2023/05/21 02:02:40;;;;;;;;;;;;;;;16.01;56.75;100456.63;5062881;28;906;-63
2023/05/21 02:05:07;;;;;;;;;;;;;;;16.94;58.03;100457.09;5093183;28;1061;-62
2023/05/21 02:07:33;;;;;;;;;;;;;;;17.08;57.41;100452.63;5091234;28;903;-63
2023/05/21 02:09:59;;;;;;;;;;;;;;;16.54;57.70;100457.00;5079627;28;1108;-62
2023/05/21 02:12:27;;;;;;;;;;;;;;;16.33;57.42;100448.03;5079741;28;1072;-62
2023/05/21 02:14:52;;;;;;;;;;;;;;;16.21;57.31;100450.25;5079217;28;1127;-62
2023/05/21 02:17:18;;;;;;;;;;;;;;;16.10;57.20;100459.63;5079566;28;1239;-63
2023/05/21 02:19:43;;;;;;;;;;;;;;;15.98;56.94;100458.00;5066193;28;2013;-61
2023/05/21 02:22:09;;;;;;;;;;;;;;;15.95;56.60;100458.56;5079490;28;1139;-62
2023/05/21 02:24:35;;;;;;;;;;;;;;;15.86;56.44;100463.78;5079405;28;1058;-61
2023/05/21 02:27:01;;;;;;;;;;;;;;;16.47;57.75;100463.91;5079567;28;1161;-63
2023/05/21 02:29:27;;;;;;;;;;;;;;;17.56;56.68;100463.00;5044514;28;1139;-63
2023/05/21 02:31:52;;;;;;;;;;;;;;;16.83;57.83;100466.47;5091410;28;955;-62
2023/05/21 02:34:19;;;;;;;;;;;;;;;16.50;57.81;100463.34;5078800;28;1150;-62
2023/05/21 02:36:47;;;;;;;;;;;;;;;16.25;57.40;100454.91;5079420;28;1154;-61
2023/05/21 02:39:14;;;;;;;;;;;;;;;16.13;57.33;100453.56;5079124;28;1070;-63
2023/05/21 02:41:39;;;;;;;;;;;;;;;16.07;57.03;100455.50;5061378;28;1984;-62
2023/05/21 02:44:05;;;;;;;;;;;;;;;15.98;56.67;100452.53;5065920;28;1267;-62
2023/05/21 02:46:30;;;;;;;;;;;;;;;17.19;57.61;100449.81;5060906;28;1158;-62
2023/05/21 02:48:56;;;;;;;;;;;;;;;16.96;57.67;100448.56;5060845;28;1231;-63
2023/05/21 02:51:22;;;;;;;;;;;;;;;16.51;57.83;100449.34;5060569;28;1170;-62
2023/05/21 02:53:48;;;;;;;;;;;;;;;16.34;57.45;100451.59;5061832;28;1182;-62
2023/05/21 02:56:14;;;;;;;;;;;;;;;16.12;57.28;100451.91;5072675;28;1278;-62
2023/05/21 02:58:40;;;;;;;;;;;;;;;16.08;56.92;100457.97;5060721;28;1221;-63
2023/05/21 03:01:06;;;;;;;;;;;;;;;16.01;56.72;100462.94;5060474;28;1918;-63
2023/05/21 03:03:31;;;;;;;;;;;;;;;16.79;57.92;100448.91;5061629;28;1162;-62
2023/05/21 03:05:57;;;;;;;;;;;;;;;17.10;57.49;100458.66;5074134;28;1152;-63
2023/05/21 03:08:23;;;;;;;;;;;;;;;16.56;57.81;100449.31;5065819;28;1046;-65
2023/05/21 03:10:49;;;;;;;;;;;;;;;16.38;57.50;100456.25;5078692;28;1232;-65
2023/05/21 03:13:15;;;;;;;;;;;;;;;16.20;57.20;100449.47;5060094;28;1268;-64
2023/05/21 03:15:42;;;;;;;;;;;;;;;16.13;56.95;100453.56;5060443;28;1114;-65
2023/05/21 03:18:08;;;;;;;;;;;;;;;16.03;56.55;100454.41;5078577;28;1148;-63
2023/05/21 03:20:34;;;;;;;;;;;;;;;15.91;56.79;100458.28;5078350;28;1909;-60
2023/05/21 03:23:03;;;;;;;;;;;;;;;16.21;57.63;100464.78;5068623;28;1320;-64
2023/05/21 03:25:29;;;;;;;;;;;;;;;17.47;57.19;100461.97;5069447;28;1158;-62
2023/05/21 03:27:55;;;;;;;;;;;;;;;16.86;57.72;100460.44;5078106;28;1066;-62
2023/05/21 03:30:45;;;;;;;;;;;;;;;16.45;57.81;100455.13;5056875;28;1201;-62
2023/05/21 03:33:30;;;;;;;;;;;;;;;16.24;57.24;100444.22;5038023;28;1274;-64
2023/05/21 03:35:56;;;;;;;;;;;;;;;16.11;57.01;100444.81;5060253;28;1359;-60
2023/05/21 03:38:24;;;;;;;;;;;;;;;16.05;56.73;100439.34;5059569;28;1362;-62
2023/05/21 03:40:50;;;;;;;;;;;;;;;16.48;58.04;100449.06;5059817;28;1906;-62
2023/05/21 03:43:16;;;;;;;;;;;;;;;17.47;56.89;100450.97;5068011;28;1243;-59
2023/05/21 03:45:42;;;;;;;;;;;;;;;16.72;57.92;100450.06;5059678;28;1427;-59
2023/05/21 03:48:30;;;;;;;;;;;;;;;16.42;57.49;100451.84;5069065;28;1103;-59
2023/05/21 03:50:58;;;;;;;;;;;;;;;16.24;57.31;100442.31;5059844;28;1106;-60
2023/05/21 03:53:23;;;;;;;;;;;;;;;16.12;57.19;100447.28;5059827;28;1115;-59
2023/05/21 03:55:53;;;;;;;;;;;;;;;16.02;56.92;100456.34;5048757;28;1017;-63
2023/05/21 03:58:21;;;;;;;;;;;;;;;16.01;56.61;100451.16;5039576;28;1135;-63
2023/05/21 04:00:47;;;;;;;;;;;;;;;16.05;57.10;100454.97;5039756;28;1905;-63
2023/05/21 04:03:13;;;;;;;;;;;;;;;17.34;57.19;100465.38;5058892;28;1079;-56
2023/05/21 04:05:40;;;;;;;;;;;;;;;16.68;57.80;100459.97;5059575;28;1290;-62
2023/05/21 04:08:06;;;;;;;;;;;;;;;16.40;57.77;100473.25;5062371;28;1363;-59
2023/05/21 04:10:31;;;;;;;;;;;;;;;16.23;57.54;100459.88;5064589;28;1101;-61
2023/05/21 04:12:57;;;;;;;;;;;;;;;16.12;57.25;100460.16;5066970;28;1219;-63
2023/05/21 04:15:23;;;;;;;;;;;;;;;15.96;57.20;100451.97;5095936;28;1185;-60
2023/05/21 04:17:49;;;;;;;;;;;;;;;15.94;56.85;100467.88;5066943;28;1174;-62
2023/05/21 04:20:15;;;;;;;;;;;;;;;15.91;56.69;100457.47;5095187;28;1910;-62
2023/05/21 04:22:41;;;;;;;;;;;;;;;17.04;57.38;100447.97;5079371;28;1183;-62
2023/05/21 04:25:07;;;;;;;;;;;;;;;17.10;57.43;100452.34;5059704;28;1344;-58
2023/05/21 04:27:36;;;;;;;;;;;;;;;16.54;57.67;100456.19;5071906;28;1227;-60
2023/05/21 04:30:03;;;;;;;;;;;;;;;16.26;57.77;100450.25;5078530;28;1256;-57
2023/05/21 04:32:32;;;;;;;;;;;;;;;16.19;57.55;100447.81;5064983;28;1509;-58
2023/05/21 04:34:59;;;;;;;;;;;;;;;16.07;57.15;100445.38;5058782;28;1384;-56
2023/05/21 04:37:26;;;;;;;;;;;;;;;15.99;57.12;100448.69;5077183;28;1046;-59
2023/05/21 04:39:55;;;;;;;;;;;;;;;15.97;56.50;100448.13;5078568;28;1905;-61
2023/05/21 04:42:22;;;;;;;;;;;;;;;15.87;56.73;100445.41;5078529;28;1624;-57
2023/05/21 04:44:48;;;;;;;;;;;;;;;15.78;56.70;100445.13;5078774;28;1122;-57
2023/05/21 04:47:14;;;;;;;;;;;;;;;16.73;57.86;100445.38;5078044;28;1133;-55
2023/05/21 04:49:40;;;;;;;;;;;;;;;17.30;56.87;100448.63;5078244;28;1143;-59
2023/05/21 04:52:05;;;;;;;;;;;;;;;16.61;57.71;100448.47;5077894;28;1572;-56
2023/05/21 04:54:31;;;;;;;;;;;;;;;16.38;57.51;100455.41;5076239;28;1118;-59
2023/05/21 04:56:56;;;;;;;;;;;;;;;16.19;57.50;100455.22;5075515;28;912;-60
2023/05/21 04:59:22;;;;;;;;;;;;;;;16.06;57.36;100462.94;5052596;28;1150;-60
2023/05/21 05:01:48;;;;;;;;;;;;;;;17.34;55.08;100459.88;5058509;28;1909;-60
2023/05/21 05:04:13;;;;;;;;;;;;;;;16.43;55.09;100463.66;5058481;28;1289;-61
2023/05/21 05:06:39;;;;;;;;;;;;;;;16.22;53.10;100457.41;5058517;28;1207;-59
2023/05/21 05:09:05;;;;;;;;;;;;;;;16.03;52.08;100466.22;5050813;28;892;-60
2023/05/21 05:11:30;;;;;;;;;;;;;;;15.99;51.12;100469.78;5051858;28;1242;-60
2023/05/21 05:13:56;;;;;;;;;;;;;;;16.66;53.63;100467.69;5058188;28;1111;-60
2023/05/21 05:16:24;;;;;;;;;;;;;;;16.36;52.50;100463.13;5058006;28;1370;-60
2023/05/21 05:18:51;;;;;;;;;;;;;;;17.42;54.70;100468.31;5057850;28;1274;-59
2023/05/21 05:21:16;;;;;;;;;;;;;;;16.98;54.70;100469.16;5082120;28;1989;-60
2023/05/21 05:23:42;;;;;;;;;;;;;;;16.61;52.88;100467.69;5058516;28;1134;-59
2023/05/21 05:26:09;;;;;;;;;;;;;;;16.49;51.47;100458.94;5057445;28;1047;-59
2023/05/21 05:28:34;;;;;;;;;;;;;;;16.33;50.66;100466.44;5058275;28;1269;-59
2023/05/21 05:31:00;;;;;;;;;;;;;;;16.98;52.35;100463.66;5056527;28;1261;-60
2023/05/21 05:33:26;;;;;;;;;;;;;;;16.87;52.42;100462.91;5063373;28;1048;-59
2023/05/21 05:35:52;;;;;;;;;;;;;;;16.50;51.73;100452.38;5057536;28;1226;-59
2023/05/21 05:38:17;;;;;;;;;;;;;;;16.37;50.83;100460.09;5058119;28;1091;-60
2023/05/21 05:40:43;;;;;;;;;;;;;;;16.31;49.75;100450.22;5057548;28;1910;-60
2023/05/21 05:43:08;;;;;;;;;;;;;;;16.69;50.82;100461.63;5077269;28;1138;-60
2023/05/21 05:45:34;;;;;;;;;;;;;;;16.74;51.37;100458.00;5082025;28;1042;-59
2023/05/21 05:48:01;;;;;;;;;;;;;;;16.42;50.61;100456.50;5057676;28;1103;-59
2023/05/21 05:50:26;;;;;;;;;;;;;;;16.45;49.88;100457.88;5075379;28;1069;-61
2023/05/21 05:52:52;;;;;;;;;;;;;;;16.85;51.58;100459.59;5057991;28;1135;-61
2023/05/21 05:55:17;;;;;;;;;;;;;;;16.54;50.88;100461.69;5076243;28;1070;-62
2023/05/21 05:57:43;;;;;;;;;;;;;;;16.49;49.78;100462.50;5075641;28;1121;-60
2023/05/21 06:00:12;;;;;;;;;;;;;;;16.30;49.22;100454.09;5057469;28;1909;-61
2023/05/21 06:02:38;;;;;;;;;;;;;;;16.30;48.65;100454.09;5075596;28;1137;-59
2023/05/21 06:05:05;;;;;;;;;;;;;;;16.25;48.26;100452.16;5057632;28;1307;-59
2023/05/21 06:07:31;;;;;;;;;;;;;;;16.31;48.50;100460.38;5060620;28;1243;-59
2023/05/21 06:09:57;;;;;;;;;;;;;;;16.82;50.31;100465.66;5062995;28;1113;-59
2023/05/21 06:12:22;;;;;;;;;;;;;;;16.49;49.79;100456.22;5057220;28;1082;-60
2023/05/21 06:14:48;;;;;;;;;;;;;;;16.40;49.26;100461.47;5057489;28;1155;-59
2023/05/21 06:17:14;;;;;;;;;;;;;;;16.20;48.93;100454.09;5057337;28;1137;-59
2023/05/21 06:19:40;;;;;;;;;;;;;;;16.22;48.36;100455.47;5060145;28;1174;-59
2023/05/21 06:22:06;;;;;;;;;;;;;;;16.93;49.62;100456.28;5075280;28;1977;-60
2023/05/21 06:24:31;;;;;;;;;;;;;;;16.41;49.67;100455.69;5057402;28;1159;-59
2023/05/21 06:26:57;;;;;;;;;;;;;;;16.29;49.26;100446.13;5057948;28;1225;-58
2023/05/21 06:29:23;;;;;;;;;;;;;;;17.10;49.75;100460.59;5057049;28;999;-60
2023/05/21 06:31:49;;;;;;;;;;;;;;;16.65;49.48;100463.28;5060545;28;2202;-61
2023/05/21 06:34:14;;;;;;;;;;;;;;;16.42;49.17;100459.25;5049541;28;1328;-62
2023/05/21 06:36:41;;;;;;;;;;;;;;;16.38;48.51;100460.91;5060852;28;1054;-60
2023/05/21 06:39:06;;;;;;;;;;;;;;;16.63;48.76;100451.75;5078849;28;1158;-59
2023/05/21 06:41:33;;;;;;;;;;;;;;;17.12;50.24;100452.06;5060401;28;1897;-61
2023/05/21 06:44:02;;;;;;;;;;;;;;;16.62;49.92;100449.28;5062106;28;1320;-60
2023/05/21 06:47:06;;;;;;;;;;;;;;;16.50;49.12;100446.88;5036290;28;1233;-61
2023/05/21 06:49:32;;;;;;;;;;;;;;;16.39;48.56;100440.59;5036934;28;1091;-61
2023/05/21 06:51:59;;;;;;;;;;;;;;;16.35;48.07;100437.59;5030746;28;1315;-61
2023/05/21 06:54:25;;;;;;;;;;;;;;;17.19;49.26;100438.81;5060925;28;1313;-63
2023/05/21 06:56:50;;;;;;;;;;;;;;;16.70;49.47;100435.78;5070723;28;1108;-63
2023/05/21 06:59:16;;;;;;;;;;;;;;;16.42;48.86;100446.38;5060939;28;1231;-60
2023/05/21 07:01:42;;;;;;;;;;;;;;;16.47;47.95;100445.50;5060498;28;1918;-61
2023/05/21 07:04:08;;;;;;;;;;;;;;;16.41;47.77;100444.72;5056335;28;1158;-57
2023/05/21 07:06:34;;;;;;;;;;;;;;;16.22;47.87;100435.44;5053970;28;1403;-61
2023/05/21 07:09:00;;;;;;;;;;;;;;;16.29;47.30;100446.94;5083338;28;1194;-60
2023/05/21 07:11:27;;;;;;;;;;;;;;;17.15;48.52;100435.00;5060981;28;1204;-63
2023/05/21 07:13:55;;;;;;;;;;;;;;;16.54;49.26;100436.97;5077964;28;1200;-64
2023/05/21 07:16:21;;;;;;;;;;;;;;;16.48;48.22;100438.09;5060804;28;1274;-59
2023/05/21 07:18:48;;;;;;;;;;;;;;;16.38;47.92;100428.81;5060910;28;1312;-58
2023/05/21 07:21:13;;;;;;;;;;;;;;;16.35;47.62;100428.53;5090792;28;1989;-65
2023/05/21 07:23:39;;;;;;;;;;;;;;;16.33;47.26;100420.59;5078108;28;1082;-64
2023/05/21 07:26:06;;;;;;;;;;;;;;;17.40;48.50;100423.00;5078376;28;1213;-65
2023/05/21 07:28:31;;;;;;;;;;;;;;;16.91;49.97;100419.22;5060323;28;1641;-64
2023/05/21 07:30:57;;;;;;;;;;;;;;;16.68;49.31;100416.03;5078226;28;1050;-62
2023/05/21 07:33:29;;;;;;;;;;;;;;;16.65;48.71;100422.09;5065614;28;1519;-64
2023/05/21 07:35:56;;;;;;;;;;;;;;;16.54;48.01;100409.53;5060336;28;1130;-60
2023/05/21 07:38:22;;;;;;;;;;;;;;;16.53;47.75;100418.88;5078083;28;1205;-64
2023/05/21 07:40:47;;;;;;;;;;;;;;;16.39;47.71;100416.72;5078034;28;1980;-61
2023/05/21 07:43:13;;;;;;;;;;;;;;;16.30;47.50;100420.31;5059903;28;1322;-58
2023/05/21 07:45:40;;;;;;;;;;;;;;;16.25;47.16;100411.00;5070500;28;1217;-58
2023/05/21 07:48:06;;;;;;;;;;;;;;;16.28;46.86;100423.34;5047435;28;1220;-61
2023/05/21 07:50:36;;;;;;;;;;;;;;;16.64;47.51;100414.97;5059898;28;1163;-62
2023/05/21 07:53:02;;;;;;;;;;;;;;;16.73;48.83;100423.41;5059430;28;1202;-61
2023/05/21 07:55:28;;;;;;;;;;;;;;;16.49;48.42;100418.59;5059566;28;1230;-61
2023/05/21 07:57:55;;;;;;;;;;;;;;;16.38;48.20;100420.59;5040390;28;937;-61
2023/05/21 08:00:27;;;;;;;;;;;;;;;17.16;48.79;100414.66;5043061;28;1958;-61
2023/05/21 08:02:56;;;;;;;;;;;;;;;16.80;49.28;100420.38;5059354;28;1229;-63
2023/05/21 08:05:23;;;;;;;;;;;;;;;16.70;48.71;100413.81;5058897;28;1070;-64
2023/05/21 08:07:48;;;;;;;;;;;;;;;16.59;48.28;100412.22;5077478;28;1206;-61
2023/05/21 08:10:14;;;;;;;;;;;;;;;16.46;48.09;100423.84;5044093;28;1159;-63
2023/05/21 08:12:40;;;;;;;;;;;;;;;16.39;47.99;100419.47;5039852;28;1222;-58
2023/05/21 08:15:07;;;;;;;;;;;;;;;16.41;47.46;100406.28;5056243;28;1257;-59
2023/05/21 08:17:36;;;;;;;;;;;;;;;16.46;47.35;100418.34;5059585;28;1154;-58
2023/05/21 08:20:03;;;;;;;;;;;;;;;16.37;47.25;100418.94;5059357;28;1969;-58
2023/05/21 08:22:30;;;;;;;;;;;;;;;16.23;47.25;100417.91;5055500;28;1227;-57
2023/05/21 08:24:55;;;;;;;;;;;;;;;16.22;47.27;100430.78;5039099;28;1202;-59
2023/05/21 08:27:21;;;;;;;;;;;;;;;16.22;46.93;100432.72;5050881;28;1518;-57
2023/05/21 08:29:46;;;;;;;;;;;;;;;17.48;48.51;100427.88;5058982;28;1252;-59
2023/05/21 08:32:12;;;;;;;;;;;;;;;16.70;49.70;100435.78;5077428;28;1114;-57
2023/05/21 08:34:37;;;;;;;;;;;;;;;16.60;48.96;100441.34;5077923;28;913;-55
2023/05/21 08:37:29;;;;;;;;;;;;;;;16.87;49.05;100434.59;5066049;28;1128;-55
2023/05/21 08:40:05;;;;;;;;;;;;;;;16.81;49.70;100435.75;5059185;28;1902;-55
2023/05/21 08:42:42;;;;;;;;;;;;;;;16.61;49.32;100434.75;5059021;28;1355;-57
2023/05/21 08:45:12;;;;;;;;;;;;;;;16.56;48.55;100435.59;5063147;28;1222;-58
2023/05/21 08:47:42;;;;;;;;;;;;;;;16.50;48.29;100441.41;5058873;28;1234;-55
2023/05/21 08:50:10;;;;;;;;;;;;;;;16.42;47.86;100445.53;5059115;28;1218;-60
2023/05/21 08:52:36;;;;;;;;;;;;;;;16.45;47.48;100444.16;5076236;28;1166;-55
2023/05/21 08:55:04;;;;;;;;;;;;;;;16.37;47.35;100454.59;5076826;28;1070;-57
2023/05/21 08:57:31;;;;;;;;;;;;;;;17.42;48.56;100451.03;5052716;28;1479;-57
2023/05/21 08:59:57;;;;;;;;;;;;;;;16.74;49.25;100452.53;5052192;28;1973;-58
2023/05/21 09:02:25;;;;;;;;;;;;;;;16.59;48.82;100456.16;5058902;28;1222;-58
2023/05/21 09:04:56;;;;;;;;;;;;;;;16.56;47.99;100464.97;5058681;28;1390;-58
2023/05/21 09:07:28;;;;;;;;;;;;;;;16.51;47.53;100464.97;5058341;28;1350;-59
2023/05/21 09:10:11;;;;;;;;;;;;;;;16.45;47.35;100460.63;5069505;28;1236;-60
2023/05/21 09:12:37;;;;;;;;;;;;;;;16.33;47.37;100459.00;5058811;28;1178;-58
2023/05/21 09:15:04;;;;;;;;;;;;;;;16.37;47.08;100476.56;5058001;28;1249;-57
2023/05/21 09:17:32;;;;;;;;;;;;;;;16.31;47.03;100474.91;5076291;28;1054;-60
2023/05/21 09:20:09;;;;;;;;;;;;;;;16.25;46.76;100468.63;5068837;28;1897;-57
2023/05/21 09:22:36;;;;;;;;;;;;;;;16.23;46.71;100481.00;5077993;28;1336;-61
2023/05/21 09:25:06;;;;;;;;;;;;;;;16.23;46.62;100478.25;5091580;28;1034;-60
2023/05/21 09:27:33;;;;;;;;;;;;;;;16.16;46.81;100485.94;5057833;28;2334;-59
2023/05/21 09:29:59;;;;;;;;;;;;;;;16.56;47.72;100485.00;5063703;28;1202;-58
2023/05/21 09:32:25;;;;;;;;;;;;;;;16.98;49.08;100482.91;5078442;28;1238;-58
2023/05/21 09:34:51;;;;;;;;;;;;;;;16.54;48.98;100483.66;5077404;28;1114;-59
2023/05/21 09:37:17;;;;;;;;;;;;;;;16.48;48.46;100482.00;5049280;28;1518;-58
2023/05/21 09:39:42;;;;;;;;;;;;;;;16.32;48.00;100490.28;5077218;28;1242;-55
2023/05/21 09:42:08;;;;;;;;;;;;;;;16.36;47.34;100483.13;5096334;28;1913;-55
2023/05/21 09:44:33;;;;;;;;;;;;;;;16.33;47.14;100474.66;5096329;28;1066;-57
2023/05/21 09:46:59;;;;;;;;;;;;;;;16.28;47.32;100478.22;5077630;28;1225;-60
2023/05/21 09:49:25;;;;;;;;;;;;;;;17.30;48.32;100469.81;5077532;28;1180;-59
2023/05/21 09:51:55;;;;;;;;;;;;;;;16.72;48.97;100483.00;5084586;28;1091;-59
2023/05/21 09:54:21;;;;;;;;;;;;;;;16.43;48.41;100480.91;5094989;28;1139;-60
2023/05/21 09:56:47;;;;;;;;;;;;;;;16.42;48.08;100481.19;5096273;28;1043;-62
2023/05/21 09:59:12;;;;;;;;;;;;;;;16.40;47.54;100476.00;5038659;28;984;-60
2023/05/21 10:01:38;;;;;;;;;;;;;;;16.64;47.87;100489.09;5079447;28;1909;-63
2023/05/21 10:04:05;;;;;;;;;;;;;;;17.35;48.81;100484.31;5046373;28;1090;-60
2023/05/21 10:06:32;;;;;;;;;;;;;;;16.73;49.19;100489.31;5088282;28;1082;-63
2023/05/21 10:09:01;;;;;;;;;;;;;;;16.56;48.44;100475.94;5090326;28;1046;-61
2023/05/21 10:11:29;;;;;;;;;;;;;;;17.60;48.93;100485.25;5099194;28;906;-62
2023/05/21 10:13:56;;;;;;;;;;;;;;;16.99;49.39;100481.81;5081332;28;1071;-62
2023/05/21 10:16:22;;;;;;;;;;;;;;;16.77;48.62;100479.41;5099994;28;1038;-61
2023/05/21 10:18:48;;;;;;;;;;;;;;;16.75;48.20;100487.94;5083226;28;1228;-60
2023/05/21 10:21:14;;;;;;;;;;;;;;;16.62;47.59;100477.56;5061025;28;1902;-60
2023/05/21 10:23:39;;;;;;;;;;;;;;;16.56;47.56;100481.44;5063649;28;1063;-61
2023/05/21 10:26:04;;;;;;;;;;;;;;;16.45;47.19;100483.38;5090761;28;1134;-59
2023/05/21 10:28:30;;;;;;;;;;;;;;;16.45;46.95;100477.09;5081277;28;1109;-61
2023/05/21 10:30:55;;;;;;;;;;;;;;;16.47;46.72;100486.69;5099986;28;1038;-61
2023/05/21 10:33:22;;;;;;;;;;;;;;;16.37;46.74;100487.53;5083833;28;1171;-62
2023/05/21 10:35:48;;;;;;;;;;;;;;;17.39;48.07;100481.81;5078901;28;1051;-61
2023/05/21 10:38:13;;;;;;;;;;;;;;;16.77;48.74;100487.66;5079226;28;1063;-60
2023/05/21 10:40:39;;;;;;;;;;;;;;;16.61;48.15;100486.91;5061296;28;1905;-61
2023/05/21 10:43:04;;;;;;;;;;;;;;;16.49;47.89;100486.41;5084177;28;1019;-60
2023/05/21 10:45:42;;;;;;;;;;;;;;;16.76;48.11;100489.59;5075012;28;1138;-60
2023/05/21 10:48:07;;;;;;;;;;;;;;;17.02;48.86;100496.91;5098536;28;1217;-61
2023/05/21 10:50:51;;;;;;;;;;;;;;;16.79;48.44;100498.34;5089573;28;1201;-61
2023/05/21 10:53:29;;;;;;;;;;;;;;;16.55;47.82;100488.00;5078475;28;1010;-59
2023/05/21 10:55:58;;;;;;;;;;;;;;;16.60;47.03;100493.50;5080031;28;1153;-59
2023/05/21 10:58:36;;;;;;;;;;;;;;;17.25;48.36;100495.38;5084957;28;1095;-59
2023/05/21 11:01:01;;;;;;;;;;;;;;;16.80;48.58;100497.25;5058643;28;1978;-60
2023/05/21 11:03:27;;;;;;;;;;;;;;;16.65;47.90;100493.47;5086968;28;1075;-59
2023/05/21 11:05:53;;;;;;;;;;;;;;;16.56;47.70;100478.69;5098689;28;1006;-60
2023/05/21 11:08:22;;;;;;;;;;;;;;;16.57;47.12;100480.34;5098154;28;1037;-61
2023/05/21 11:10:51;;;;;;;;;;;;;;;17.74;47.86;100494.47;5081390;28;1038;-60
2023/05/21 11:13:18;;;;;;;;;;;;;;;16.97;48.69;100488.69;5091801;28;1193;-59
2023/05/21 11:16:00;;;;;;;;;;;;;;;16.75;48.28;100487.94;5087734;28;1181;-62
2023/05/21 11:18:35;;;;;;;;;;;;;;;16.75;47.79;100487.13;5069579;28;1091;-61
2023/05/21 11:21:11;;;;;;;;;;;;;;;16.64;47.48;100491.00;5097856;28;1973;-62
2023/05/21 11:23:52;;;;;;;;;;;;;;;16.67;47.43;100484.97;5084640;28;1118;-60
2023/05/21 11:26:17;;;;;;;;;;;;;;;17.21;48.41;100486.91;5085545;28;1126;-61
2023/05/21 11:28:43;;;;;;;;;;;;;;;16.87;48.40;100484.03;5098626;28;1093;-61
2023/05/21 11:31:24;;;;;;;;;;;;;;;16.79;48.02;100488.19;5098191;28;1034;-62
2023/05/21 11:34:08;;;;;;;;;;;;;;;16.71;47.51;100484.09;5098350;28;1128;-62
2023/05/21 11:36:36;;;;;;;;;;;;;;;16.64;47.15;100478.09;5097735;28;1031;-61
2023/05/21 11:39:11;;;;;;;;;;;;;;;17.31;47.86;100480.50;5086457;28;1038;-62
2023/05/21 11:42:15;;;;;;;;;;;;;;;17.15;48.94;100481.72;5097649;28;1973;-63
2023/05/21 11:44:41;;;;;;;;;;;;;;;16.80;48.38;100475.28;4978869;28;1227;-62
2023/05/21 11:47:07;;;;;;;;;;;;;;;16.76;47.87;100472.31;4971305;28;1213;-62
2023/05/21 11:49:33;;;;;;;;;;;;;;;16.77;47.33;100469.25;5039207;28;1064;-61
2023/05/21 11:51:59;;;;;;;;;;;;;;;16.69;47.05;100472.59;5078049;28;1018;-62
2023/05/21 11:54:24;;;;;;;;;;;;;;;16.67;46.51;100469.28;5077933;28;1070;-61
2023/05/21 11:56:50;;;;;;;;;;;;;;;16.58;46.67;100468.25;5089639;28;1139;-62
2023/05/21 11:59:16;;;;;;;;;;;;;;;16.46;46.51;100462.25;5061108;28;1106;-61
2023/05/21 12:01:42;;;;;;;;;;;;;;;17.12;47.32;100454.81;5077843;28;1901;-63
2023/05/21 12:04:07;;;;;;;;;;;;;;;16.91;48.58;100460.41;5083504;28;1058;-59
2023/05/21 12:06:33;;;;;;;;;;;;;;;16.79;48.10;100457.16;5090472;28;1034;-62
2023/05/21 12:08:58;;;;;;;;;;;;;;;16.67;47.69;100466.56;5077806;28;1233;-63
2023/05/21 12:11:25;;;;;;;;;;;;;;;16.64;47.29;100461.63;5093605;28;1015;-59
2023/05/21 12:13:51;;;;;;;;;;;;;;;16.63;46.89;100459.16;5088102;28;1122;-60
2023/05/21 12:16:16;;;;;;;;;;;;;;;16.46;46.71;100459.53;5094083;28;1136;-62
2023/05/21 12:18:42;;;;;;;;;;;;;;;17.31;47.40;100455.78;5059423;28;1047;-59
2023/05/21 12:21:07;;;;;;;;;;;;;;;16.90;47.68;100453.28;5076603;28;1922;-60
2023/05/21 12:23:33;;;;;;;;;;;;;;;16.67;47.56;100452.81;5077053;28;958;-57
2023/05/21 12:25:58;;;;;;;;;;;;;;;16.67;47.00;100452.81;5089272;28;1182;-59
2023/05/21 12:28:24;;;;;;;;;;;;;;;16.55;46.77;100452.31;5072814;28;1104;-59
2023/05/21 12:30:49;;;;;;;;;;;;;;;16.56;46.62;100449.31;5079097;28;1109;-58
2023/05/21 12:33:16;;;;;;;;;;;;;;;17.62;47.51;100444.53;5078588;28;1050;-58
2023/05/21 12:35:48;;;;;;;;;;;;;;;16.98;48.30;100447.19;5072209;28;965;-58
2023/05/21 12:38:14;;;;;;;;;;;;;;;16.78;47.81;100453.59;5087038;28;1133;-60
2023/05/21 12:40:40;;;;;;;;;;;;;;;16.72;47.18;100452.81;5090808;28;1897;-61
2023/05/21 12:43:05;;;;;;;;;;;;;;;16.82;47.37;100443.69;5086792;28;1095;-61
2023/05/21 12:45:31;;;;;;;;;;;;;;;17.33;48.37;100441.75;5079905;28;1149;-61
2023/05/21 12:47:56;;;;;;;;;;;;;;;16.97;48.38;100445.56;5087611;28;1028;-60